createdAt,value
2018-07-16T00:00:04.628Z,18.12
2018-07-16T00:01:04.655Z,18.07
2018-07-16T00:02:04.413Z,18.15
2018-07-16T00:03:04.435Z,18.1
2018-07-16T00:04:04.469Z,18.12
2018-07-16T00:05:04.484Z,18.08
2018-07-16T00:06:19.170Z,18.11
2018-07-16T00:07:04.537Z,18.07
2018-07-16T00:08:04.560Z,18.12
2018-07-16T00:09:04.324Z,18.08
2018-07-16T00:10:04.865Z,18.07
2018-07-16T00:11:04.372Z,18.05
2018-07-16T00:12:04.911Z,18.11
2018-07-16T00:13:04.938Z,18.05
2018-07-16T00:14:19.620Z,18.11
2018-07-16T00:15:04.726Z,18.11
2018-07-16T00:16:05.009Z,18.02
2018-07-16T00:17:04.773Z,18.11
2018-07-16T00:18:04.803Z,18.02
2018-07-16T00:19:04.821Z,17.96
2018-07-16T00:20:04.586Z,18
2018-07-16T00:21:04.610Z,18.02
2018-07-16T00:22:04.896Z,17.95
2018-07-16T00:23:04.914Z,17.92
2018-07-16T00:24:04.939Z,17.89
2018-07-16T00:25:04.961Z,17.81
2018-07-16T00:26:05.253Z,17.81
2018-07-16T00:28:05.036Z,17.79
2018-07-16T00:29:19.979Z,17.81
2018-07-16T00:30:05.345Z,17.86
2018-07-16T00:31:20.026Z,17.82
2018-07-16T00:32:05.389Z,17.82
2018-07-16T00:33:05.415Z,17.86
2018-07-16T00:34:05.437Z,17.78
2018-07-16T00:35:05.465Z,17.79
2018-07-16T00:36:05.483Z,17.77
2018-07-16T00:37:05.506Z,17.75
2018-07-16T00:38:19.934Z,17.79
2018-07-16T00:39:05.298Z,17.72
2018-07-16T00:40:05.321Z,17.75
2018-07-16T00:42:05.626Z,17.62
2018-07-16T00:43:05.649Z,17.64
2018-07-16T00:44:05.417Z,17.54
2018-07-16T00:45:05.701Z,17.59
2018-07-16T00:46:20.384Z,17.55
2018-07-16T00:47:20.406Z,17.52
2018-07-16T00:48:05.512Z,17.43
2018-07-16T00:49:05.535Z,17.49
2018-07-16T00:50:05.819Z,17.36
2018-07-16T00:52:05.606Z,17.43
2018-07-16T00:54:20.574Z,17.37
2018-07-16T00:56:05.961Z,17.46
2018-07-16T00:57:05.726Z,17.49
2018-07-16T00:58:06.011Z,17.43
2018-07-16T00:59:06.035Z,17.51
2018-07-16T01:00:06.060Z,17.51
2018-07-16T01:01:06.083Z,17.36
2018-07-16T01:02:06.102Z,17.37
2018-07-16T01:03:20.786Z,17.38
2018-07-16T01:04:05.646Z,17.46
2018-07-16T01:05:05.922Z,17.31
2018-07-16T01:06:06.199Z,17.33
2018-07-16T01:07:06.220Z,17.31
2018-07-16T01:08:06.246Z,17.28
2018-07-16T01:09:06.307Z,17.25
2018-07-16T01:10:20.953Z,17.23
2018-07-16T01:11:06.315Z,17.25
2018-07-16T01:12:05.824Z,17.22
2018-07-16T01:13:06.106Z,17.23
2018-07-16T01:14:05.870Z,17.12
2018-07-16T01:15:06.431Z,17.06
2018-07-16T01:16:06.436Z,17.08
2018-07-16T01:17:06.202Z,17.07
2018-07-16T01:18:06.224Z,17
2018-07-16T01:19:06.508Z,16.93
2018-07-16T01:20:06.529Z,16.83
2018-07-16T01:21:06.295Z,16.85
2018-07-16T01:22:06.588Z,16.85
2018-07-16T01:23:06.341Z,16.83
2018-07-16T01:24:06.624Z,16.85
2018-07-16T01:25:06.398Z,16.86
2018-07-16T01:26:21.333Z,16.76
2018-07-16T01:27:06.440Z,16.75
2018-07-16T01:28:06.720Z,16.64
2018-07-16T01:29:06.482Z,16.76
2018-07-16T01:30:06.776Z,16.66
2018-07-16T01:31:06.534Z,16.5
2018-07-16T01:32:06.821Z,16.52
2018-07-16T01:33:06.577Z,16.56
2018-07-16T01:34:06.863Z,16.48
2018-07-16T01:35:06.629Z,16.39
2018-07-16T01:36:06.651Z,16.38
2018-07-16T01:37:06.930Z,16.42
2018-07-16T01:38:06.965Z,16.49
2018-07-16T01:39:06.720Z,16.38
2018-07-16T01:40:06.742Z,16.3
2018-07-16T01:42:06.791Z,16.42
2018-07-16T01:43:06.557Z,16.41
2018-07-16T01:45:06.603Z,16.35
2018-07-16T01:46:06.627Z,16.39
2018-07-16T01:48:07.195Z,16.33
2018-07-16T01:49:06.957Z,16.34
2018-07-16T01:50:06.982Z,16.27
2018-07-16T01:51:07.261Z,16.46
2018-07-16T01:52:07.290Z,16.33
2018-07-16T01:53:07.305Z,16.3
2018-07-16T01:54:07.332Z,16.3
2018-07-16T01:55:07.356Z,16.28
2018-07-16T01:56:07.120Z,16.41
2018-07-16T01:57:07.144Z,16.28
2018-07-16T01:58:07.424Z,16.3
2018-07-16T01:59:07.457Z,16.27
2018-07-16T02:00:07.215Z,16.23
2018-07-16T02:01:06.979Z,16.21
2018-07-16T02:02:07.526Z,16.27
2018-07-16T02:03:07.562Z,16.09
2018-07-16T02:04:07.573Z,16.09
2018-07-16T02:05:07.597Z,16.07
2018-07-16T02:06:22.273Z,16.14
2018-07-16T02:07:07.633Z,16.12
2018-07-16T02:08:07.661Z,16.14
2018-07-16T02:09:07.694Z,16.09
2018-07-16T02:10:07.723Z,16.12
2018-07-16T02:11:07.213Z,16.17
2018-07-16T02:12:07.491Z,16.09
2018-07-16T02:13:22.435Z,16.08
2018-07-16T02:14:07.545Z,15.97
2018-07-16T02:15:07.311Z,15.96
2018-07-16T02:16:07.610Z,16
2018-07-16T02:17:07.352Z,16.07
2018-07-16T02:18:07.378Z,16.04
2018-07-16T02:19:07.915Z,16.01
2018-07-16T02:20:07.422Z,16
2018-07-16T02:21:07.963Z,15.96
2018-07-16T02:22:07.470Z,16
2018-07-16T02:23:08.017Z,15.97
2018-07-16T02:24:08.041Z,16.07
2018-07-16T02:25:07.803Z,15.93
2018-07-16T02:26:07.822Z,15.86
2018-07-16T02:27:08.100Z,15.82
2018-07-16T02:28:07.872Z,15.82
2018-07-16T02:29:22.812Z,15.83
2018-07-16T02:30:07.657Z,15.84
2018-07-16T02:31:08.197Z,15.94
2018-07-16T02:32:08.220Z,15.9
2018-07-16T02:34:08.267Z,15.86
2018-07-16T02:35:08.286Z,15.9
2018-07-16T02:36:08.069Z,15.87
2018-07-16T02:37:08.088Z,15.89
2018-07-16T02:38:08.100Z,15.8
2018-07-16T02:39:08.384Z,15.83
2018-07-16T02:40:08.410Z,15.83
2018-07-16T02:41:08.440Z,15.74
2018-07-16T02:42:08.456Z,15.68
2018-07-16T02:43:08.496Z,15.72
2018-07-16T02:44:08.508Z,15.75
2018-07-16T02:46:08.562Z,15.71
2018-07-16T02:47:08.309Z,15.62
2018-07-16T02:49:08.614Z,15.62
2018-07-16T02:50:08.640Z,15.54
2018-07-16T02:51:08.662Z,15.53
2018-07-16T02:52:08.690Z,15.67
2018-07-16T02:53:08.448Z,15.69
2018-07-16T02:54:08.745Z,15.57
2018-07-16T02:55:08.519Z,15.6
2018-07-16T02:56:08.785Z,15.6
2018-07-16T02:57:08.801Z,15.57
2018-07-16T02:58:08.564Z,15.49
2018-07-16T02:59:08.593Z,15.47
2018-07-16T03:00:08.615Z,15.44
2018-07-16T03:01:23.556Z,15.5
2018-07-16T03:02:08.921Z,15.51
2018-07-16T03:03:08.944Z,15.51
2018-07-16T03:04:08.983Z,15.49
2018-07-16T03:05:08.998Z,15.53
2018-07-16T03:06:09.021Z,15.54
2018-07-16T03:07:08.785Z,15.54
2018-07-16T03:08:08.802Z,15.49
2018-07-16T03:09:08.824Z,15.53
2018-07-16T03:10:08.844Z,15.57
2018-07-16T03:11:23.783Z,15.56
2018-07-16T03:12:09.152Z,15.54
2018-07-16T03:13:09.172Z,15.49
2018-07-16T03:14:08.947Z,15.46
2018-07-16T03:15:09.216Z,15.5
2018-07-16T03:16:23.911Z,15.5
2018-07-16T03:17:09.296Z,15.46
2018-07-16T03:18:09.334Z,15.44
2018-07-16T03:19:09.317Z,15.43
2018-07-16T03:20:09.335Z,15.46
2018-07-16T03:21:09.362Z,15.5
2018-07-16T03:22:09.379Z,15.49
2018-07-16T03:23:09.145Z,15.53
2018-07-16T03:24:09.432Z,15.54
2018-07-16T03:25:09.454Z,15.59
2018-07-16T03:27:09.494Z,15.57
2018-07-16T03:28:09.259Z,15.6
2018-07-16T03:29:09.284Z,15.56
2018-07-16T03:30:09.315Z,15.53
2018-07-16T03:31:09.602Z,15.56
2018-07-16T03:32:09.354Z,15.47
2018-07-16T03:33:09.371Z,15.47
2018-07-16T03:34:09.396Z,15.51
2018-07-16T03:35:09.676Z,15.53
2018-07-16T03:36:09.727Z,15.54
2018-07-16T03:37:09.726Z,15.5
2018-07-16T03:38:09.488Z,15.51
2018-07-16T03:39:09.514Z,15.53
2018-07-16T03:40:09.540Z,15.47
2018-07-16T03:41:09.557Z,15.47
2018-07-16T03:42:09.584Z,15.6
2018-07-16T03:43:09.606Z,15.72
2018-07-16T03:44:09.627Z,15.78
2018-07-16T03:45:09.921Z,15.89
2018-07-16T03:46:09.674Z,15.72
2018-07-16T03:47:09.955Z,15.76
2018-07-16T03:48:24.641Z,15.76
2018-07-16T03:49:09.745Z,15.72
2018-07-16T03:50:10.028Z,15.76
2018-07-16T03:51:10.048Z,15.86
2018-07-16T03:52:24.735Z,15.97
2018-07-16T03:53:10.094Z,15.9
2018-07-16T03:54:09.859Z,16
2018-07-16T03:55:10.140Z,15.93
2018-07-16T03:56:09.909Z,15.96
2018-07-16T03:57:10.187Z,15.97
2018-07-16T03:58:09.952Z,16.05
2018-07-16T03:59:09.972Z,16.04
2018-07-16T04:00:09.741Z,16.05
2018-07-16T04:01:10.022Z,16.12
2018-07-16T04:02:10.302Z,16.17
2018-07-16T04:03:10.331Z,16.12
2018-07-16T04:04:25.015Z,16.2
2018-07-16T04:05:10.374Z,16.21
2018-07-16T04:06:10.398Z,16.24
2018-07-16T04:07:10.427Z,16.27
2018-07-16T04:08:10.183Z,16.35
2018-07-16T04:09:10.207Z,16.28
2018-07-16T04:10:10.228Z,16.28
2018-07-16T04:11:10.516Z,16.33
2018-07-16T04:12:10.538Z,16.3
2018-07-16T04:13:10.296Z,16.48
2018-07-16T04:14:10.584Z,16.57
2018-07-16T04:15:10.609Z,16.6
2018-07-16T04:16:25.031Z,16.7
2018-07-16T04:17:10.664Z,16.79
2018-07-16T04:18:10.680Z,17.15
2018-07-16T04:19:10.696Z,17.55
2018-07-16T04:20:25.383Z,18.11
2018-07-16T04:21:10.748Z,18.41
2018-07-16T04:22:10.773Z,18.52
2018-07-16T04:23:10.539Z,18.76
2018-07-16T04:24:10.817Z,18.7
2018-07-16T04:25:10.583Z,18.66
2018-07-16T04:26:10.864Z,18.55
2018-07-16T04:27:10.889Z,18.63
2018-07-16T04:28:10.661Z,18.55
2018-07-16T04:29:25.600Z,18.42
2018-07-16T04:30:10.965Z,18.36
2018-07-16T04:31:10.986Z,18.41
2018-07-16T04:32:11.009Z,18.42
2018-07-16T04:33:11.031Z,18.42
2018-07-16T04:35:11.091Z,18.42
2018-07-16T04:36:25.766Z,18.36
2018-07-16T04:37:11.130Z,18.41
2018-07-16T04:38:11.161Z,18.37
2018-07-16T04:39:11.186Z,18.39
2018-07-16T04:40:11.205Z,18.58
2018-07-16T04:41:11.232Z,18.78
2018-07-16T04:43:11.375Z,19.39
2018-07-16T04:44:11.296Z,20.11
2018-07-16T04:45:11.338Z,21.13
2018-07-16T04:46:26.009Z,22.33
2018-07-16T04:47:11.472Z,23.02
2018-07-16T04:48:11.139Z,23.97
2018-07-16T04:49:11.420Z,24.71
2018-07-16T04:50:11.449Z,25.45
2018-07-16T04:51:25.879Z,26.02
2018-07-16T04:53:11.269Z,26.51
2018-07-16T04:54:11.559Z,26.62
2018-07-16T04:55:11.580Z,26.99
2018-07-16T04:57:11.637Z,27.39
2018-07-16T04:58:11.667Z,27.55
2018-07-16T04:59:11.699Z,27.87
2018-07-16T05:00:26.389Z,28.61
2018-07-16T05:01:11.497Z,29.19
2018-07-16T05:02:11.778Z,29.89
2018-07-16T05:03:11.620Z,30.57
2018-07-16T05:04:11.583Z,30.79
2018-07-16T05:05:11.873Z,30.7
2018-07-16T05:06:11.640Z,30
2018-07-16T05:07:11.674Z,29.64
2018-07-16T05:08:11.965Z,29.57
2018-07-16T05:09:11.990Z,29.55
2018-07-16T05:11:11.799Z,30.62
2018-07-16T05:12:11.828Z,31.23
2018-07-16T05:13:12.113Z,31.69
2018-07-16T05:14:11.892Z,32.08
2018-07-16T05:15:11.926Z,32.22
2018-07-16T05:16:26.875Z,31.57
2018-07-16T05:17:12.244Z,31.7
2018-07-16T05:18:12.589Z,31.5
2018-07-16T05:19:12.376Z,31.43
2018-07-16T05:20:12.087Z,32.15
2018-07-16T05:21:12.119Z,31.89
2018-07-16T05:22:12.410Z,32.3
2018-07-16T05:23:27.103Z,33.09
2018-07-16T05:24:12.810Z,33.12
2018-07-16T05:25:12.506Z,32.88
2018-07-16T05:26:12.546Z,32.45
2018-07-16T05:27:12.317Z,32.51
2018-07-16T05:28:12.607Z,32.93
2018-07-16T05:29:12.641Z,33.66
2018-07-16T05:30:12.416Z,33.63
2018-07-16T05:31:12.713Z,33.9
2018-07-16T05:32:12.937Z,33.6
2018-07-16T05:33:27.184Z,33.31
2018-07-16T05:34:12.815Z,33.47
2018-07-16T05:35:12.847Z,34
2018-07-16T05:36:12.885Z,34.54
2018-07-16T05:37:12.917Z,34.46
2018-07-16T05:38:13.184Z,34.4
2018-07-16T05:39:27.392Z,34.12
2018-07-16T05:40:13.021Z,33.87
2018-07-16T05:41:13.057Z,33.72
2018-07-16T05:42:13.095Z,34.21
2018-07-16T05:43:12.885Z,33.82
2018-07-16T05:44:13.168Z,33.49
2018-07-16T05:45:13.198Z,33.56
2018-07-16T05:46:13.233Z,33.61
2018-07-16T05:47:13.111Z,33.97
2018-07-16T05:48:13.304Z,33.95
2018-07-16T05:49:13.338Z,34.1
2018-07-16T05:50:28.035Z,34.8
2018-07-16T05:51:13.152Z,34.92
2018-07-16T05:52:13.444Z,34.78
2018-07-16T05:53:13.592Z,34.88
2018-07-16T05:54:13.516Z,34.92
2018-07-16T05:55:28.220Z,34.77
2018-07-16T05:56:13.333Z,34.62
2018-07-16T05:58:13.799Z,35.11
2018-07-16T05:59:13.709Z,35.34
2018-07-16T06:00:13.733Z,35.45
2018-07-16T06:01:28.435Z,35.58
2018-07-16T06:02:13.808Z,35.53
2018-07-16T06:03:13.842Z,35.48
2018-07-16T06:04:28.286Z,35.36
2018-07-16T06:05:13.919Z,34.94
2018-07-16T06:06:13.949Z,34.64
2018-07-16T06:07:13.985Z,34.34
2018-07-16T06:08:13.769Z,34.19
2018-07-16T06:09:14.069Z,34.64
2018-07-16T06:10:14.095Z,34.64
2018-07-16T06:11:28.797Z,34.82
2018-07-16T06:12:14.173Z,34.56
2018-07-16T06:13:28.881Z,34.52
2018-07-16T06:14:13.994Z,34.66
2018-07-16T06:15:14.288Z,33.18
2018-07-16T06:16:14.320Z,32.62
2018-07-16T06:17:14.356Z,33.01
2018-07-16T06:18:29.058Z,33.79
2018-07-16T06:19:14.169Z,34.47
2018-07-16T06:20:14.468Z,35.21
2018-07-16T06:21:14.246Z,35.56
2018-07-16T06:22:14.283Z,35.4
2018-07-16T06:23:14.590Z,35.45
2018-07-16T06:24:14.762Z,35.77
2018-07-16T06:25:14.403Z,35.48
2018-07-16T06:26:29.355Z,35.53
2018-07-16T06:27:14.739Z,35.31
2018-07-16T06:28:14.780Z,35.28
2018-07-16T06:29:14.801Z,35.21
2018-07-16T06:30:14.840Z,35.4
2018-07-16T06:31:14.880Z,34.37
2018-07-16T06:32:14.924Z,34.21
2018-07-16T06:33:14.953Z,34.54
2018-07-16T06:34:29.655Z,34.64
2018-07-16T06:35:15.030Z,34.81
2018-07-16T06:36:15.067Z,35.16
2018-07-16T06:37:15.181Z,34.81
2018-07-16T06:38:15.139Z,34.82
2018-07-16T06:39:15.174Z,35.07
2018-07-16T06:40:15.199Z,34.65
2018-07-16T06:41:17.007Z,34.66
2018-07-16T06:43:15.328Z,35.31
2018-07-16T06:44:15.363Z,34.97
2018-07-16T06:45:15.420Z,35.11
2018-07-16T06:46:14.924Z,35.44
2018-07-16T06:47:15.477Z,35.14
2018-07-16T06:48:15.515Z,35.47
2018-07-16T06:49:15.294Z,35.53
2018-07-16T06:50:30.256Z,36.25
2018-07-16T06:51:15.376Z,36.23
2018-07-16T06:52:15.671Z,36.6
2018-07-16T06:53:15.705Z,36.39
2018-07-16T06:55:15.770Z,36.53
2018-07-16T06:56:15.817Z,35.56
2018-07-16T06:57:15.873Z,35.84
2018-07-16T06:58:30.563Z,35.53
2018-07-16T06:59:15.674Z,35.71
2018-07-16T07:00:15.975Z,35.48
2018-07-16T07:01:16.015Z,35.53
2018-07-16T07:02:16.188Z,36.37
2018-07-16T07:03:16.087Z,36.34
2018-07-16T07:04:30.796Z,36.57
2018-07-16T07:05:16.159Z,36.29
2018-07-16T07:06:16.200Z,36.95
2018-07-16T07:07:15.981Z,37.18
2018-07-16T07:08:16.275Z,37.74
2018-07-16T07:09:16.314Z,37.98
2018-07-16T07:10:16.544Z,38.16
2018-07-16T07:11:16.395Z,38.03
2018-07-16T07:12:16.427Z,37.7
2018-07-16T07:13:16.206Z,38.6
2018-07-16T07:14:31.174Z,37.79
2018-07-16T07:15:16.549Z,37.18
2018-07-16T07:16:16.585Z,37.57
2018-07-16T07:17:16.630Z,37.89
2018-07-16T07:18:16.629Z,37.82
2018-07-16T07:19:16.702Z,37.98
2018-07-16T07:20:16.748Z,38.52
2018-07-16T07:21:16.774Z,37.67
2018-07-16T07:22:31.480Z,36.85
2018-07-16T07:23:16.851Z,36.85
2018-07-16T07:24:16.893Z,36.43
2018-07-16T07:25:16.974Z,36.17
2018-07-16T07:26:31.646Z,36.31
2018-07-16T07:27:17.009Z,37.02
2018-07-16T07:28:17.046Z,37.13
2018-07-16T07:29:16.827Z,37.32
2018-07-16T07:31:16.907Z,37.31
2018-07-16T07:32:17.201Z,37
2018-07-16T07:33:17.237Z,36.34
2018-07-16T07:34:17.279Z,36.85
2018-07-16T07:35:17.743Z,36.95
2018-07-16T07:36:17.194Z,36.66
2018-07-16T07:37:17.139Z,37.05
2018-07-16T07:38:32.097Z,37.07
2018-07-16T07:39:17.221Z,37.47
2018-07-16T07:40:31.916Z,38.11
2018-07-16T07:41:17.288Z,37.63
2018-07-16T07:42:17.595Z,36.62
2018-07-16T07:43:17.631Z,36.38
2018-07-16T07:45:17.702Z,35.43
2018-07-16T07:46:32.407Z,36.29
2018-07-16T07:47:17.526Z,36.41
2018-07-16T07:48:17.563Z,36.43
2018-07-16T07:49:17.865Z,36.16
2018-07-16T07:50:17.901Z,36.23
2018-07-16T07:51:17.934Z,36.59
2018-07-16T07:52:32.639Z,36.51
2018-07-16T07:53:18.020Z,36.91
2018-07-16T07:54:18.519Z,35.5
2018-07-16T07:55:19.889Z,35.11
2018-07-16T07:56:18.128Z,34.7
2018-07-16T07:57:18.170Z,35.29
2018-07-16T07:58:18.210Z,35.53
2018-07-16T07:59:17.992Z,35.84
2018-07-16T08:00:18.285Z,35.93
2018-07-16T08:01:32.725Z,34.99
2018-07-16T08:02:18.360Z,35.02
2018-07-16T08:03:18.168Z,34.94
2018-07-16T08:05:18.477Z,33.29
2018-07-16T08:06:18.508Z,33.95
2018-07-16T08:07:18.547Z,34.44
2018-07-16T08:08:18.328Z,34.62
2018-07-16T08:09:18.654Z,35.53
2018-07-16T08:10:18.678Z,36.03
2018-07-16T08:11:18.712Z,36.05
2018-07-16T08:12:18.754Z,36.38
2018-07-16T08:13:18.813Z,36.65
2018-07-16T08:14:18.833Z,36.71
2018-07-16T08:15:18.882Z,36.23
2018-07-16T08:16:19.130Z,35.6
2018-07-16T08:18:19.023Z,35.68
2018-07-16T08:19:19.013Z,36.66
2018-07-16T08:20:18.792Z,37
2018-07-16T08:21:33.746Z,36.94
2018-07-16T08:22:19.151Z,36.51
2018-07-16T08:23:19.165Z,36.35
2018-07-16T08:24:20.440Z,35.74
2018-07-16T08:25:19.258Z,35.19
2018-07-16T08:26:19.283Z,34.25
2018-07-16T08:27:19.322Z,33.42
2018-07-16T08:28:33.744Z,32.45
2018-07-16T08:29:19.142Z,32.18
2018-07-16T08:30:19.161Z,31.46
2018-07-16T08:31:19.465Z,31.62
2018-07-16T08:32:19.811Z,32.7
2018-07-16T08:35:19.610Z,34.52
2018-07-16T08:36:19.643Z,34.58
2018-07-16T08:37:19.694Z,34.54
2018-07-16T08:38:19.457Z,34.7
2018-07-16T08:39:19.969Z,33.9
2018-07-16T08:40:19.530Z,34.4
2018-07-16T08:41:19.856Z,34.56
2018-07-16T08:42:19.881Z,34.8
2018-07-16T08:43:19.907Z,34.87
2018-07-16T08:44:19.985Z,34.94
2018-07-16T08:45:19.978Z,34.61
2018-07-16T08:46:19.898Z,34.61
2018-07-16T08:47:20.041Z,34.59
2018-07-16T08:48:20.081Z,34.92
2018-07-16T08:49:34.778Z,35.33
2018-07-16T08:50:20.156Z,35.36
2018-07-16T08:51:19.930Z,35.85
2018-07-16T08:52:20.221Z,35.53
2018-07-16T08:53:20.263Z,35.4
2018-07-16T08:54:20.335Z,35.25
2018-07-16T08:55:20.334Z,35.44
2018-07-16T08:56:20.111Z,35.53
2018-07-16T08:58:20.440Z,35.53
2018-07-16T08:59:20.762Z,35.55
2018-07-16T09:00:20.253Z,35.82
2018-07-16T09:01:20.551Z,35.34
2018-07-16T09:02:20.598Z,33.86
2018-07-16T09:03:20.633Z,33.28
2018-07-16T09:04:20.658Z,32.66
2018-07-16T09:05:35.362Z,32.35
2018-07-16T09:06:20.734Z,32.48
2018-07-16T09:07:20.524Z,32.84
2018-07-16T09:08:20.806Z,32.94
2018-07-16T09:09:20.840Z,32.47
2018-07-16T09:10:20.886Z,32.41
2018-07-16T09:11:21.164Z,32.44
2018-07-16T09:12:20.690Z,32.7
2018-07-16T09:13:21.046Z,32.48
2018-07-16T09:14:21.019Z,32.82
2018-07-16T09:15:20.797Z,32.4
2018-07-16T09:16:35.496Z,32.45
2018-07-16T09:17:20.872Z,32.37
2018-07-16T09:18:21.162Z,33.11
2018-07-16T09:19:21.540Z,33.45
2018-07-16T09:20:20.980Z,33.9
2018-07-16T09:21:35.930Z,34.3
2018-07-16T09:22:21.305Z,34.1
2018-07-16T09:23:21.081Z,34.31
2018-07-16T09:24:21.116Z,34.65
2018-07-16T09:25:21.599Z,34.89
2018-07-16T09:26:21.443Z,34.84
2018-07-16T09:27:21.221Z,34.85
2018-07-16T09:28:21.525Z,34.91
2018-07-16T09:29:21.559Z,35.28
2018-07-16T09:30:21.324Z,35.15
2018-07-16T09:31:21.624Z,34.97
2018-07-16T09:32:21.654Z,35.04
2018-07-16T09:33:21.691Z,33.65
2018-07-16T09:34:21.727Z,33.54
2018-07-16T09:35:21.502Z,33.75
2018-07-16T09:36:36.457Z,34.47
2018-07-16T09:37:21.846Z,33.9
2018-07-16T09:39:21.904Z,33.29
2018-07-16T09:40:21.940Z,32.72
2018-07-16T09:41:21.971Z,32.74
2018-07-16T09:42:22.003Z,33.01
2018-07-16T09:43:22.045Z,32.78
2018-07-16T09:44:22.238Z,33.28
2018-07-16T09:45:22.107Z,33.56
2018-07-16T09:46:22.145Z,33.57
2018-07-16T09:47:21.929Z,34.34
2018-07-16T09:48:21.958Z,34.97
2018-07-16T09:49:22.249Z,34.64
2018-07-16T09:50:22.330Z,34.31
2018-07-16T09:52:22.351Z,33.47
2018-07-16T09:53:22.384Z,32.72
2018-07-16T09:54:22.418Z,33.22
2018-07-16T09:55:22.453Z,33.49
2018-07-16T09:56:22.610Z,33.79
2018-07-16T09:57:22.522Z,33.53
2018-07-16T09:58:37.229Z,32.96
2018-07-16T09:59:22.599Z,33.32
2018-07-16T10:00:22.369Z,32.75
2018-07-16T10:01:22.661Z,32.07
2018-07-16T10:02:22.701Z,32.11
2018-07-16T10:03:22.473Z,32.41
2018-07-16T10:04:22.507Z,32.79
2018-07-16T10:05:22.536Z,32.26
2018-07-16T10:06:22.572Z,32.04
2018-07-16T10:07:22.606Z,32.62
2018-07-16T10:09:22.935Z,33.34
2018-07-16T10:12:23.034Z,34.03
2018-07-16T10:13:23.076Z,33.71
2018-07-16T10:14:23.103Z,34.06
2018-07-16T10:15:23.146Z,33.97
2018-07-16T10:16:22.910Z,33.71
2018-07-16T10:17:23.202Z,34.12
2018-07-16T10:18:23.239Z,34.52
2018-07-16T10:19:23.273Z,34.97
2018-07-16T10:20:23.751Z,35
2018-07-16T10:21:23.077Z,35.15
2018-07-16T10:22:23.369Z,35.19
2018-07-16T10:23:23.409Z,34.88
2018-07-16T10:24:38.103Z,35.37
2018-07-16T10:25:23.221Z,35.58
2018-07-16T10:26:23.502Z,35.34
2018-07-16T10:27:23.538Z,35.06
2018-07-16T10:28:23.571Z,34.97
2018-07-16T10:29:23.344Z,34.56
2018-07-16T10:30:23.636Z,33.87
2018-07-16T10:31:23.673Z,33.98
2018-07-16T10:32:23.452Z,34.17
2018-07-16T10:33:23.481Z,34.08
2018-07-16T10:34:23.781Z,33.15
2018-07-16T10:35:23.808Z,32.82
2018-07-16T10:36:23.840Z,32.75
2018-07-16T10:37:23.870Z,32.85
2018-07-16T10:38:23.904Z,32.66
2018-07-16T10:40:38.636Z,32.78
2018-07-16T10:41:24.006Z,32.78
2018-07-16T10:42:24.045Z,32.4
2018-07-16T10:43:24.082Z,31.73
2018-07-16T10:45:38.805Z,31.16
2018-07-16T10:46:24.170Z,31.28
2018-07-16T10:47:24.203Z,31.34
2018-07-16T10:48:24.234Z,31.17
2018-07-16T10:49:24.011Z,31.28
2018-07-16T10:50:38.707Z,31.44
2018-07-16T10:51:38.997Z,30.49
2018-07-16T10:52:24.381Z,30.05
2018-07-16T10:53:24.404Z,29.34
2018-07-16T10:54:24.432Z,29.05
2018-07-16T10:55:24.671Z,29.46
2018-07-16T10:56:39.160Z,29.67
2018-07-16T10:57:24.536Z,29.76
2018-07-16T10:58:24.051Z,29.52
2018-07-16T10:59:39.264Z,29.36
2018-07-16T11:00:24.628Z,29.16
2018-07-16T11:01:24.406Z,29.37
2018-07-16T11:02:24.692Z,29.57
2018-07-16T11:03:24.732Z,29.97
2018-07-16T11:04:24.496Z,29.94
2018-07-16T11:05:24.984Z,30.07
2018-07-16T11:06:24.822Z,30.31
2018-07-16T11:07:24.855Z,30.72
2018-07-16T11:08:24.893Z,30.43
2018-07-16T11:09:24.913Z,30.29
2018-07-16T11:10:24.944Z,30.07
2018-07-16T11:11:39.642Z,30.15
2018-07-16T11:12:25.014Z,30.32
2018-07-16T11:13:25.045Z,30.61
2018-07-16T11:14:25.084Z,30.61
2018-07-16T11:15:25.109Z,30.34
2018-07-16T11:16:24.887Z,29.71
2018-07-16T11:17:25.168Z,29.63
2018-07-16T11:18:25.203Z,29.49
2018-07-16T11:19:25.241Z,29.6
2018-07-16T11:20:25.277Z,29.79
2018-07-16T11:21:25.306Z,30.02
2018-07-16T11:22:25.322Z,29.55
2018-07-16T11:23:24.839Z,29.63
2018-07-16T11:24:25.387Z,29.78
2018-07-16T11:25:25.417Z,29.89
2018-07-16T11:26:25.449Z,29.86
2018-07-16T11:27:25.477Z,29.68
2018-07-16T11:28:25.253Z,29.7
2018-07-16T11:29:25.544Z,29.71
2018-07-16T11:30:40.240Z,29.85
2018-07-16T11:31:25.353Z,29.98
2018-07-16T11:32:25.637Z,29.83
2018-07-16T11:33:25.405Z,29.68
2018-07-16T11:34:25.447Z,29.52
2018-07-16T11:35:25.953Z,29.61
2018-07-16T11:36:25.499Z,29.79
2018-07-16T11:37:25.789Z,29.71
2018-07-16T11:38:25.824Z,29.89
2018-07-16T11:39:40.509Z,30.1
2018-07-16T11:40:25.621Z,30.11
2018-07-16T11:41:25.653Z,30.24
2018-07-16T11:42:25.681Z,30.24
2018-07-16T11:43:40.639Z,30.45
2018-07-16T11:44:25.794Z,30.67
2018-07-16T11:45:26.038Z,30.77
2018-07-16T11:46:25.813Z,30.76
2018-07-16T11:47:26.106Z,31.06
2018-07-16T11:48:25.865Z,31.29
2018-07-16T11:49:26.163Z,31.23
2018-07-16T11:50:40.848Z,30.94
2018-07-16T11:51:26.217Z,30.76
2018-07-16T11:52:26.143Z,30.67
2018-07-16T11:53:26.274Z,30.55
2018-07-16T11:54:26.305Z,30.42
2018-07-16T11:55:26.339Z,30.34
2018-07-16T11:56:26.372Z,30.01
2018-07-16T11:57:26.141Z,29.8
2018-07-16T11:58:26.168Z,29.61
2018-07-16T11:59:40.864Z,29.46
2018-07-16T12:00:26.499Z,29.3
2018-07-16T12:01:26.523Z,29.16
2018-07-16T12:02:26.550Z,28.64
2018-07-16T12:03:26.136Z,28.34
2018-07-16T12:04:26.353Z,28.12
2018-07-16T12:05:26.386Z,28.09
2018-07-16T12:06:26.514Z,28.12
2018-07-16T12:07:41.364Z,28.67
2018-07-16T12:08:26.471Z,28.92
2018-07-16T12:09:26.765Z,29.23
2018-07-16T12:10:26.795Z,29.46
2018-07-16T12:11:26.827Z,29.52
2018-07-16T12:12:26.803Z,29.6
2018-07-16T12:13:26.619Z,29.95
2018-07-16T12:14:26.654Z,30.05
2018-07-16T12:16:26.973Z,30.07
2018-07-16T12:17:27.001Z,30.2
2018-07-16T12:19:27.055Z,30.38
2018-07-16T12:21:27.120Z,30.46
2018-07-16T12:22:27.153Z,30.67
2018-07-16T12:23:27.185Z,30.89
2018-07-16T12:24:27.217Z,30.95
2018-07-16T12:25:41.643Z,30.97
2018-07-16T12:26:27.269Z,31.07
2018-07-16T12:27:27.296Z,31.09
2018-07-16T12:28:27.106Z,30.76
2018-07-16T12:29:27.360Z,30.69
2018-07-16T12:30:27.385Z,30.57
2018-07-16T12:31:42.081Z,30.53
2018-07-16T12:32:27.445Z,30.37
2018-07-16T12:33:27.474Z,29.98
2018-07-16T12:34:27.508Z,29.39
2018-07-16T12:35:27.277Z,29.06
2018-07-16T12:36:27.582Z,28.92
2018-07-16T12:37:27.595Z,28.59
2018-07-16T12:38:27.624Z,28.49
2018-07-16T12:39:27.663Z,28.58
2018-07-16T12:40:27.701Z,28.76
2018-07-16T12:41:28.077Z,29.11
2018-07-16T12:42:27.747Z,29.48
2018-07-16T12:43:27.524Z,29.28
2018-07-16T12:44:27.834Z,29.04
2018-07-16T12:45:27.581Z,29.43
2018-07-16T12:46:42.529Z,29.83
2018-07-16T12:47:27.905Z,30
2018-07-16T12:48:27.932Z,30.19
2018-07-16T12:49:28.073Z,30.2
2018-07-16T12:50:27.990Z,30.08
2018-07-16T12:51:28.019Z,30.02
2018-07-16T12:52:28.105Z,30
2018-07-16T12:53:28.072Z,29.83
2018-07-16T12:54:27.846Z,29.73
2018-07-16T12:55:28.019Z,29.74
2018-07-16T12:56:28.166Z,29.48
2018-07-16T12:57:27.678Z,29.36
2018-07-16T12:58:28.221Z,29.46
2018-07-16T12:59:27.995Z,29.24
2018-07-16T13:01:28.323Z,29
2018-07-16T13:02:28.084Z,28.83
2018-07-16T13:03:28.367Z,29.04
2018-07-16T13:04:28.403Z,29.3
2018-07-16T13:05:28.173Z,29.14
2018-07-16T13:07:28.692Z,28.71
2018-07-16T13:08:28.520Z,28.73
2018-07-16T13:09:28.290Z,29.04
2018-07-16T13:10:28.581Z,29.33
2018-07-16T13:12:28.639Z,29.74
2018-07-16T13:13:28.668Z,29.92
2018-07-16T13:14:43.355Z,30.1
2018-07-16T13:15:28.725Z,30.16
2018-07-16T13:16:28.758Z,30.16
2018-07-16T13:17:28.792Z,29.8
2018-07-16T13:18:43.479Z,29.85
2018-07-16T13:20:28.872Z,30.01
2018-07-16T13:21:28.912Z,30.05
2018-07-16T13:22:28.931Z,30.04
2018-07-16T13:23:28.961Z,29.8
2018-07-16T13:24:28.474Z,29.51
2018-07-16T13:25:43.683Z,29.46
2018-07-16T13:26:28.790Z,29.52
2018-07-16T13:27:43.741Z,29.71
2018-07-16T13:28:29.108Z,29.63
2018-07-16T13:29:28.886Z,29.33
2018-07-16T13:30:29.176Z,29.27
2018-07-16T13:31:28.938Z,29.43
2018-07-16T13:32:28.968Z,29.58
2018-07-16T13:33:29.258Z,29.7
2018-07-16T13:34:43.690Z,29.51
2018-07-16T13:36:29.348Z,29.04
2018-07-16T13:37:29.378Z,28.81
2018-07-16T13:38:29.403Z,28.8